sensor_id;sensor_type;location;lat;lon;timestamp;P1;durP1;ratioP1;P2;durP2;ratioP2
36061;SDS011;22123;52.412;20.970;2023-09-19T00:00:59;2.38;;;1.33;;
36061;SDS011;22123;52.412;20.970;2023-09-19T00:03:25;2.95;;;1.35;;
36061;SDS011;22123;52.412;20.970;2023-09-19T00:05:51;4.93;;;2.08;;
36061;SDS011;22123;52.412;20.970;2023-09-19T00:10:42;2.50;;;1.88;;
36061;SDS011;22123;52.412;20.970;2023-09-19T00:13:09;2.03;;;1.48;;
36061;SDS011;22123;52.412;20.970;2023-09-19T00:15:36;3.15;;;2.83;;
36061;SDS011;22123;52.412;20.970;2023-09-19T00:18:04;2.85;;;2.55;;
36061;SDS011;22123;52.412;20.970;2023-09-19T00:20:30;3.70;;;1.95;;
36061;SDS011;22123;52.412;20.970;2023-09-19T00:22:56;3.35;;;1.80;;
36061;SDS011;22123;52.412;20.970;2023-09-19T00:27:48;2.90;;;1.65;;
36061;SDS011;22123;52.412;20.970;2023-09-19T00:30:13;3.05;;;1.63;;
36061;SDS011;22123;52.412;20.970;2023-09-19T00:35:06;2.75;;;1.80;;
36061;SDS011;22123;52.412;20.970;2023-09-19T00:37:32;3.08;;;2.63;;
36061;SDS011;22123;52.412;20.970;2023-09-19T00:42:24;2.63;;;1.65;;
36061;SDS011;22123;52.412;20.970;2023-09-19T00:44:49;2.30;;;1.67;;
36061;SDS011;22123;52.412;20.970;2023-09-19T00:49:41;3.83;;;3.28;;
36061;SDS011;22123;52.412;20.970;2023-09-19T00:54:33;3.63;;;2.08;;
36061;SDS011;22123;52.412;20.970;2023-09-19T00:56:59;2.03;;;1.70;;
36061;SDS011;22123;52.412;20.970;2023-09-19T00:59:25;3.08;;;1.90;;
36061;SDS011;22123;52.412;20.970;2023-09-19T01:01:52;4.78;;;2.28;;
36061;SDS011;22123;52.412;20.970;2023-09-19T01:04:20;3.50;;;1.55;;
36061;SDS011;22123;52.412;20.970;2023-09-19T01:06:46;2.70;;;1.40;;
36061;SDS011;22123;52.412;20.970;2023-09-19T01:11:38;4.35;;;2.15;;
36061;SDS011;22123;52.412;20.970;2023-09-19T01:17:03;2.60;;;1.67;;
36061;SDS011;22123;52.412;20.970;2023-09-19T01:22:16;3.78;;;2.60;;
36061;SDS011;22123;52.412;20.970;2023-09-19T01:30:32;3.47;;;2.33;;
36061;SDS011;22123;52.412;20.970;2023-09-19T01:33:01;6.38;;;1.75;;
36061;SDS011;22123;52.412;20.970;2023-09-19T01:35:27;2.80;;;1.17;;
36061;SDS011;22123;52.412;20.970;2023-09-19T01:37:54;3.20;;;1.67;;
36061;SDS011;22123;52.412;20.970;2023-09-19T01:40:20;2.65;;;1.80;;
36061;SDS011;22123;52.412;20.970;2023-09-19T01:42:58;3.30;;;2.13;;
36061;SDS011;22123;52.412;20.970;2023-09-19T01:48:40;5.97;;;1.75;;
36061;SDS011;22123;52.412;20.970;2023-09-19T01:51:10;4.45;;;2.22;;
36061;SDS011;22123;52.412;20.970;2023-09-19T01:53:41;5.97;;;2.00;;
36061;SDS011;22123;52.412;20.970;2023-09-19T01:56:12;4.28;;;2.03;;
36061;SDS011;22123;52.412;20.970;2023-09-19T01:58:46;2.92;;;1.50;;
36061;SDS011;22123;52.412;20.970;2023-09-19T02:01:18;4.05;;;1.67;;
36061;SDS011;22123;52.412;20.970;2023-09-19T02:03:47;1.92;;;1.65;;
36061;SDS011;22123;52.412;20.970;2023-09-19T02:06:14;3.92;;;2.38;;
36061;SDS011;22123;52.412;20.970;2023-09-19T02:08:40;4.28;;;2.13;;
36061;SDS011;22123;52.412;20.970;2023-09-19T02:13:32;2.28;;;1.83;;
36061;SDS011;22123;52.412;20.970;2023-09-19T02:15:58;4.05;;;2.05;;
36061;SDS011;22123;52.412;20.970;2023-09-19T02:18:25;5.80;;;1.67;;
36061;SDS011;22123;52.412;20.970;2023-09-19T02:20:52;1.92;;;1.42;;
36061;SDS011;22123;52.412;20.970;2023-09-19T02:23:18;3.90;;;1.88;;
36061;SDS011;22123;52.412;20.970;2023-09-19T02:28:17;3.40;;;1.75;;
36061;SDS011;22123;52.412;20.970;2023-09-19T02:30:43;4.90;;;1.90;;
36061;SDS011;22123;52.412;20.970;2023-09-19T02:35:34;3.45;;;2.40;;
36061;SDS011;22123;52.412;20.970;2023-09-19T02:38:00;2.05;;;1.60;;
36061;SDS011;22123;52.412;20.970;2023-09-19T02:40:26;4.03;;;1.58;;
36061;SDS011;22123;52.412;20.970;2023-09-19T02:42:53;5.05;;;2.67;;
36061;SDS011;22123;52.412;20.970;2023-09-19T02:45:20;2.88;;;1.60;;
36061;SDS011;22123;52.412;20.970;2023-09-19T02:47:46;4.80;;;2.22;;
36061;SDS011;22123;52.412;20.970;2023-09-19T02:50:13;3.35;;;1.55;;
36061;SDS011;22123;52.412;20.970;2023-09-19T02:52:43;3.88;;;1.90;;
36061;SDS011;22123;52.412;20.970;2023-09-19T02:55:10;3.53;;;1.35;;
36061;SDS011;22123;52.412;20.970;2023-09-19T02:57:40;8.25;;;3.13;;
36061;SDS011;22123;52.412;20.970;2023-09-19T03:00:08;2.10;;;1.50;;
36061;SDS011;22123;52.412;20.970;2023-09-19T03:02:35;3.40;;;2.05;;
36061;SDS011;22123;52.412;20.970;2023-09-19T03:05:02;2.58;;;1.63;;
36061;SDS011;22123;52.412;20.970;2023-09-19T03:07:27;3.03;;;2.50;;
36061;SDS011;22123;52.412;20.970;2023-09-19T03:12:19;3.95;;;1.75;;
36061;SDS011;22123;52.412;20.970;2023-09-19T03:14:45;4.03;;;2.53;;
36061;SDS011;22123;52.412;20.970;2023-09-19T03:19:36;3.70;;;2.55;;
36061;SDS011;22123;52.412;20.970;2023-09-19T03:22:02;3.13;;;1.83;;
36061;SDS011;22123;52.412;20.970;2023-09-19T03:24:28;2.45;;;1.75;;
36061;SDS011;22123;52.412;20.970;2023-09-19T03:26:54;4.00;;;2.42;;
36061;SDS011;22123;52.412;20.970;2023-09-19T03:31:46;6.50;;;2.40;;
36061;SDS011;22123;52.412;20.970;2023-09-19T03:34:11;2.80;;;2.22;;
36061;SDS011;22123;52.412;20.970;2023-09-19T03:39:03;4.07;;;2.30;;
36061;SDS011;22123;52.412;20.970;2023-09-19T03:41:29;4.20;;;1.67;;
36061;SDS011;22123;52.412;20.970;2023-09-19T03:46:21;2.42;;;2.03;;
36061;SDS011;22123;52.412;20.970;2023-09-19T03:51:13;3.08;;;2.20;;
36061;SDS011;22123;52.412;20.970;2023-09-19T03:53:39;3.95;;;2.67;;
36061;SDS011;22123;52.412;20.970;2023-09-19T03:58:30;3.72;;;1.67;;
36061;SDS011;22123;52.412;20.970;2023-09-19T04:03:22;3.70;;;1.75;;
36061;SDS011;22123;52.412;20.970;2023-09-19T04:05:48;3.60;;;2.42;;
36061;SDS011;22123;52.412;20.970;2023-09-19T04:10:42;2.65;;;2.00;;
36061;SDS011;22123;52.412;20.970;2023-09-19T04:13:08;2.47;;;1.80;;
36061;SDS011;22123;52.412;20.970;2023-09-19T04:18:00;2.45;;;1.95;;
36061;SDS011;22123;52.412;20.970;2023-09-19T04:22:51;4.65;;;2.80;;
36061;SDS011;22123;52.412;20.970;2023-09-19T04:27:43;2.58;;;1.45;;
36061;SDS011;22123;52.412;20.970;2023-09-19T04:30:10;5.30;;;2.58;;
36061;SDS011;22123;52.412;20.970;2023-09-19T04:32:36;3.15;;;1.98;;
36061;SDS011;22123;52.412;20.970;2023-09-19T04:37:27;4.50;;;2.80;;
36061;SDS011;22123;52.412;20.970;2023-09-19T04:42:19;2.55;;;2.25;;
36061;SDS011;22123;52.412;20.970;2023-09-19T04:44:45;2.97;;;2.05;;
36061;SDS011;22123;52.412;20.970;2023-09-19T04:49:36;3.80;;;2.08;;
36061;SDS011;22123;52.412;20.970;2023-09-19T04:54:28;4.75;;;2.15;;
36061;SDS011;22123;52.412;20.970;2023-09-19T04:59:26;5.07;;;1.88;;
36061;SDS011;22123;52.412;20.970;2023-09-19T05:01:58;3.00;;;2.60;;
36061;SDS011;22123;52.412;20.970;2023-09-19T05:04:24;4.00;;;1.55;;
36061;SDS011;22123;52.412;20.970;2023-09-19T05:09:16;4.70;;;1.40;;
36061;SDS011;22123;52.412;20.970;2023-09-19T05:14:07;4.90;;;2.42;;
36061;SDS011;22123;52.412;20.970;2023-09-19T05:16:33;3.90;;;2.10;;
36061;SDS011;22123;52.412;20.970;2023-09-19T05:21:24;1.83;;;1.60;;
36061;SDS011;22123;52.412;20.970;2023-09-19T05:23:51;6.93;;;2.00;;
36061;SDS011;22123;52.412;20.970;2023-09-19T05:26:17;4.75;;;2.05;;
36061;SDS011;22123;52.412;20.970;2023-09-19T05:31:08;3.08;;;1.85;;
36061;SDS011;22123;52.412;20.970;2023-09-19T05:33:34;2.83;;;1.88;;
36061;SDS011;22123;52.412;20.970;2023-09-19T05:38:26;4.05;;;1.50;;
36061;SDS011;22123;52.412;20.970;2023-09-19T05:40:53;2.60;;;1.83;;
36061;SDS011;22123;52.412;20.970;2023-09-19T05:43:19;3.33;;;1.80;;
36061;SDS011;22123;52.412;20.970;2023-09-19T05:45:45;4.30;;;2.15;;
36061;SDS011;22123;52.412;20.970;2023-09-19T05:50:37;6.13;;;2.38;;
36061;SDS011;22123;52.412;20.970;2023-09-19T05:53:03;3.67;;;1.92;;
36061;SDS011;22123;52.412;20.970;2023-09-19T05:55:29;3.40;;;1.75;;
36061;SDS011;22123;52.412;20.970;2023-09-19T05:57:55;2.53;;;1.77;;
36061;SDS011;22123;52.412;20.970;2023-09-19T06:00:21;6.07;;;1.95;;
36061;SDS011;22123;52.412;20.970;2023-09-19T06:02:55;3.30;;;2.17;;
36061;SDS011;22123;52.412;20.970;2023-09-19T06:05:22;7.63;;;3.10;;
36061;SDS011;22123;52.412;20.970;2023-09-19T06:07:49;3.10;;;1.75;;
36061;SDS011;22123;52.412;20.970;2023-09-19T06:10:15;4.25;;;3.10;;
36061;SDS011;22123;52.412;20.970;2023-09-19T06:12:41;2.92;;;1.83;;
36061;SDS011;22123;52.412;20.970;2023-09-19T06:15:08;3.33;;;1.52;;
36061;SDS011;22123;52.412;20.970;2023-09-19T06:20:00;4.35;;;2.13;;
36061;SDS011;22123;52.412;20.970;2023-09-19T06:22:25;2.47;;;1.77;;
36061;SDS011;22123;52.412;20.970;2023-09-19T06:27:17;4.15;;;2.60;;
36061;SDS011;22123;52.412;20.970;2023-09-19T06:32:08;2.35;;;1.60;;
36061;SDS011;22123;52.412;20.970;2023-09-19T06:34:34;2.15;;;1.98;;
36061;SDS011;22123;52.412;20.970;2023-09-19T06:37:01;2.03;;;1.60;;
36061;SDS011;22123;52.412;20.970;2023-09-19T06:39:27;3.35;;;3.00;;
36061;SDS011;22123;52.412;20.970;2023-09-19T06:41:53;2.85;;;2.45;;
36061;SDS011;22123;52.412;20.970;2023-09-19T06:44:19;2.90;;;2.17;;
36061;SDS011;22123;52.412;20.970;2023-09-19T06:46:45;3.85;;;1.90;;
36061;SDS011;22123;52.412;20.970;2023-09-19T06:49:10;4.95;;;2.97;;
36061;SDS011;22123;52.412;20.970;2023-09-19T06:51:36;4.32;;;2.00;;
36061;SDS011;22123;52.412;20.970;2023-09-19T06:54:02;3.60;;;2.13;;
36061;SDS011;22123;52.412;20.970;2023-09-19T06:56:28;3.50;;;2.15;;
36061;SDS011;22123;52.412;20.970;2023-09-19T06:58:54;2.72;;;1.85;;
36061;SDS011;22123;52.412;20.970;2023-09-19T07:03:45;3.25;;;2.50;;
36061;SDS011;22123;52.412;20.970;2023-09-19T07:06:11;4.20;;;2.55;;
36061;SDS011;22123;52.412;20.970;2023-09-19T07:08:37;5.45;;;2.15;;
36061;SDS011;22123;52.412;20.970;2023-09-19T07:11:03;3.53;;;2.58;;
36061;SDS011;22123;52.412;20.970;2023-09-19T07:13:29;3.17;;;2.33;;
36061;SDS011;22123;52.412;20.970;2023-09-19T07:15:55;4.03;;;2.42;;
36061;SDS011;22123;52.412;20.970;2023-09-19T07:18:24;5.63;;;3.10;;
36061;SDS011;22123;52.412;20.970;2023-09-19T07:20:50;3.50;;;2.70;;
36061;SDS011;22123;52.412;20.970;2023-09-19T07:23:16;3.85;;;3.10;;
36061;SDS011;22123;52.412;20.970;2023-09-19T07:25:47;4.32;;;2.42;;
36061;SDS011;22123;52.412;20.970;2023-09-19T07:28:13;4.57;;;2.47;;
36061;SDS011;22123;52.412;20.970;2023-09-19T07:30:39;3.47;;;2.60;;
36061;SDS011;22123;52.412;20.970;2023-09-19T07:33:05;2.60;;;2.40;;
36061;SDS011;22123;52.412;20.970;2023-09-19T07:35:31;2.55;;;1.88;;
36061;SDS011;22123;52.412;20.970;2023-09-19T07:37:58;4.57;;;2.65;;
36061;SDS011;22123;52.412;20.970;2023-09-19T07:40:24;3.05;;;2.28;;
36061;SDS011;22123;52.412;20.970;2023-09-19T07:42:50;5.15;;;2.72;;
36061;SDS011;22123;52.412;20.970;2023-09-19T07:45:16;4.38;;;2.70;;
36061;SDS011;22123;52.412;20.970;2023-09-19T07:47:48;4.35;;;2.83;;
36061;SDS011;22123;52.412;20.970;2023-09-19T07:50:16;4.22;;;2.95;;
36061;SDS011;22123;52.412;20.970;2023-09-19T07:52:42;3.13;;;2.35;;
36061;SDS011;22123;52.412;20.970;2023-09-19T07:55:08;2.97;;;2.10;;
36061;SDS011;22123;52.412;20.970;2023-09-19T07:57:35;5.03;;;2.33;;
36061;SDS011;22123;52.412;20.970;2023-09-19T08:00:01;4.95;;;2.60;;
36061;SDS011;22123;52.412;20.970;2023-09-19T08:02:27;4.60;;;2.88;;
36061;SDS011;22123;52.412;20.970;2023-09-19T08:04:53;3.40;;;2.35;;
36061;SDS011;22123;52.412;20.970;2023-09-19T08:07:19;2.35;;;2.15;;
36061;SDS011;22123;52.412;20.970;2023-09-19T08:09:44;3.47;;;2.60;;
36061;SDS011;22123;52.412;20.970;2023-09-19T08:12:10;4.53;;;3.75;;
36061;SDS011;22123;52.412;20.970;2023-09-19T08:14:36;5.88;;;3.45;;
36061;SDS011;22123;52.412;20.970;2023-09-19T08:17:02;5.38;;;3.08;;
36061;SDS011;22123;52.412;20.970;2023-09-19T08:19:29;4.05;;;2.75;;
36061;SDS011;22123;52.412;20.970;2023-09-19T08:21:55;4.38;;;2.60;;
36061;SDS011;22123;52.412;20.970;2023-09-19T08:24:21;4.68;;;3.28;;
36061;SDS011;22123;52.412;20.970;2023-09-19T08:26:47;4.22;;;2.90;;
36061;SDS011;22123;52.412;20.970;2023-09-19T08:29:13;4.07;;;3.10;;
36061;SDS011;22123;52.412;20.970;2023-09-19T08:31:39;8.07;;;2.72;;
36061;SDS011;22123;52.412;20.970;2023-09-19T08:34:05;5.47;;;3.50;;
36061;SDS011;22123;52.412;20.970;2023-09-19T08:36:31;5.20;;;3.28;;
36061;SDS011;22123;52.412;20.970;2023-09-19T08:38:56;7.55;;;2.88;;
36061;SDS011;22123;52.412;20.970;2023-09-19T08:41:22;3.92;;;2.67;;
36061;SDS011;22123;52.412;20.970;2023-09-19T08:43:48;4.60;;;2.85;;
36061;SDS011;22123;52.412;20.970;2023-09-19T08:46:15;3.55;;;2.75;;
36061;SDS011;22123;52.412;20.970;2023-09-19T08:48:44;4.72;;;2.63;;
36061;SDS011;22123;52.412;20.970;2023-09-19T08:51:26;4.75;;;2.25;;
36061;SDS011;22123;52.412;20.970;2023-09-19T08:54:08;4.40;;;2.60;;
36061;SDS011;22123;52.412;20.970;2023-09-19T08:56:34;4.22;;;2.75;;
36061;SDS011;22123;52.412;20.970;2023-09-19T08:59:04;3.30;;;2.60;;
36061;SDS011;22123;52.412;20.970;2023-09-19T09:01:31;3.10;;;2.15;;
36061;SDS011;22123;52.412;20.970;2023-09-19T09:03:58;3.50;;;2.78;;
36061;SDS011;22123;52.412;20.970;2023-09-19T09:06:25;4.28;;;2.30;;
36061;SDS011;22123;52.412;20.970;2023-09-19T09:08:51;4.03;;;2.55;;
36061;SDS011;22123;52.412;20.970;2023-09-19T09:11:17;3.90;;;2.75;;
36061;SDS011;22123;52.412;20.970;2023-09-19T09:13:44;3.03;;;2.25;;
36061;SDS011;22123;52.412;20.970;2023-09-19T09:16:13;3.75;;;1.98;;
36061;SDS011;22123;52.412;20.970;2023-09-19T09:18:40;4.07;;;1.67;;
36061;SDS011;22123;52.412;20.970;2023-09-19T09:21:06;2.60;;;1.67;;
36061;SDS011;22123;52.412;20.970;2023-09-19T09:23:32;5.50;;;2.38;;
36061;SDS011;22123;52.412;20.970;2023-09-19T09:25:58;2.78;;;1.52;;
36061;SDS011;22123;52.412;20.970;2023-09-19T09:28:25;1.98;;;1.30;;
36061;SDS011;22123;52.412;20.970;2023-09-19T09:30:52;3.22;;;2.22;;
36061;SDS011;22123;52.412;20.970;2023-09-19T09:33:18;4.30;;;1.77;;
36061;SDS011;22123;52.412;20.970;2023-09-19T09:38:12;3.17;;;1.85;;
36061;SDS011;22123;52.412;20.970;2023-09-19T09:43:30;3.70;;;2.20;;
36061;SDS011;22123;52.412;20.970;2023-09-19T09:48:32;4.32;;;1.65;;
36061;SDS011;22123;52.412;20.970;2023-09-19T09:50:58;1.45;;;1.35;;
36061;SDS011;22123;52.412;20.970;2023-09-19T09:53:24;2.22;;;1.95;;
36061;SDS011;22123;52.412;20.970;2023-09-19T09:56:04;2.85;;;1.55;;
36061;SDS011;22123;52.412;20.970;2023-09-19T09:58:34;1.83;;;1.60;;
36061;SDS011;22123;52.412;20.970;2023-09-19T10:01:14;3.83;;;1.70;;
36061;SDS011;22123;52.412;20.970;2023-09-19T10:03:40;1.55;;;1.42;;
36061;SDS011;22123;52.412;20.970;2023-09-19T10:06:08;2.20;;;1.40;;
36061;SDS011;22123;52.412;20.970;2023-09-19T10:08:35;1.70;;;1.50;;
36061;SDS011;22123;52.412;20.970;2023-09-19T10:11:01;3.95;;;1.48;;
36061;SDS011;22123;52.412;20.970;2023-09-19T10:13:41;2.88;;;1.60;;
36061;SDS011;22123;52.412;20.970;2023-09-19T10:16:09;2.10;;;1.63;;
36061;SDS011;22123;52.412;20.970;2023-09-19T10:18:37;3.97;;;1.92;;
36061;SDS011;22123;52.412;20.970;2023-09-19T10:21:04;3.15;;;1.83;;
36061;SDS011;22123;52.412;20.970;2023-09-19T10:23:30;2.58;;;1.30;;
36061;SDS011;22123;52.412;20.970;2023-09-19T10:25:57;3.45;;;2.08;;
36061;SDS011;22123;52.412;20.970;2023-09-19T10:28:26;3.42;;;1.70;;
36061;SDS011;22123;52.412;20.970;2023-09-19T10:30:53;1.50;;;1.30;;
36061;SDS011;22123;52.412;20.970;2023-09-19T10:33:20;1.92;;;1.17;;
36061;SDS011;22123;52.412;20.970;2023-09-19T10:35:48;2.30;;;1.15;;
36061;SDS011;22123;52.412;20.970;2023-09-19T10:38:17;3.08;;;1.45;;
36061;SDS011;22123;52.412;20.970;2023-09-19T10:40:45;1.30;;;1.20;;
36061;SDS011;22123;52.412;20.970;2023-09-19T10:45:42;1.65;;;1.10;;
36061;SDS011;22123;52.412;20.970;2023-09-19T10:48:10;1.63;;;1.00;;
36061;SDS011;22123;52.412;20.970;2023-09-19T10:53:14;2.88;;;0.88;;
36061;SDS011;22123;52.412;20.970;2023-09-19T10:55:42;1.17;;;1.08;;
36061;SDS011;22123;52.412;20.970;2023-09-19T10:58:24;2.60;;;1.67;;
36061;SDS011;22123;52.412;20.970;2023-09-19T11:00:57;1.45;;;0.82;;
36061;SDS011;22123;52.412;20.970;2023-09-19T11:03:24;2.22;;;1.25;;
36061;SDS011;22123;52.412;20.970;2023-09-19T11:06:06;1.63;;;1.25;;
36061;SDS011;22123;52.412;20.970;2023-09-19T11:08:52;2.50;;;1.42;;
36061;SDS011;22123;52.412;20.970;2023-09-19T11:22:50;1.40;;;1.17;;
36061;SDS011;22123;52.412;20.970;2023-09-19T11:30:33;2.20;;;1.67;;
36061;SDS011;22123;52.412;20.970;2023-09-19T11:33:19;1.88;;;1.23;;
36061;SDS011;22123;52.412;20.970;2023-09-19T11:35:58;1.25;;;1.15;;
36061;SDS011;22123;52.412;20.970;2023-09-19T11:41:53;1.23;;;0.88;;
36061;SDS011;22123;52.412;20.970;2023-09-19T11:49:16;3.40;;;1.38;;
36061;SDS011;22123;52.412;20.970;2023-09-19T11:51:42;2.15;;;1.67;;
36061;SDS011;22123;52.412;20.970;2023-09-19T11:54:10;2.28;;;1.05;;
36061;SDS011;22123;52.412;20.970;2023-09-19T11:56:38;1.33;;;1.20;;
36061;SDS011;22123;52.412;20.970;2023-09-19T11:59:04;0.85;;;0.85;;
36061;SDS011;22123;52.412;20.970;2023-09-19T12:01:31;1.73;;;1.00;;
36061;SDS011;22123;52.412;20.970;2023-09-19T12:03:58;2.13;;;1.35;;
36061;SDS011;22123;52.412;20.970;2023-09-19T12:06:25;1.35;;;0.85;;
36061;SDS011;22123;52.412;20.970;2023-09-19T12:08:51;2.75;;;1.17;;
36061;SDS011;22123;52.412;20.970;2023-09-19T12:11:18;2.50;;;1.13;;
36061;SDS011;22123;52.412;20.970;2023-09-19T12:13:44;1.73;;;1.15;;
36061;SDS011;22123;52.412;20.970;2023-09-19T12:16:11;1.70;;;1.38;;
36061;SDS011;22123;52.412;20.970;2023-09-19T12:18:38;1.77;;;1.30;;
36061;SDS011;22123;52.412;20.970;2023-09-19T12:21:04;2.72;;;1.30;;
36061;SDS011;22123;52.412;20.970;2023-09-19T12:25:55;2.80;;;1.25;;
36061;SDS011;22123;52.412;20.970;2023-09-19T12:28:21;1.55;;;1.17;;
36061;SDS011;22123;52.412;20.970;2023-09-19T12:30:52;1.92;;;1.35;;
36061;SDS011;22123;52.412;20.970;2023-09-19T12:33:19;1.88;;;1.08;;
36061;SDS011;22123;52.412;20.970;2023-09-19T12:35:45;1.42;;;0.80;;
36061;SDS011;22123;52.412;20.970;2023-09-19T12:38:13;1.27;;;1.00;;
36061;SDS011;22123;52.412;20.970;2023-09-19T12:40:56;2.28;;;1.25;;
36061;SDS011;22123;52.412;20.970;2023-09-19T12:43:23;0.93;;;0.63;;
36061;SDS011;22123;52.412;20.970;2023-09-19T12:45:49;2.20;;;1.50;;
36061;SDS011;22123;52.412;20.970;2023-09-19T12:48:22;2.38;;;1.20;;
36061;SDS011;22123;52.412;20.970;2023-09-19T12:53:30;2.42;;;1.40;;
36061;SDS011;22123;52.412;20.970;2023-09-19T12:55:58;1.90;;;1.25;;
36061;SDS011;22123;52.412;20.970;2023-09-19T12:58:24;2.90;;;1.15;;
36061;SDS011;22123;52.412;20.970;2023-09-19T13:00:50;2.20;;;1.23;;
36061;SDS011;22123;52.412;20.970;2023-09-19T13:03:38;1.95;;;1.15;;
36061;SDS011;22123;52.412;20.970;2023-09-19T13:06:04;2.25;;;1.60;;
36061;SDS011;22123;52.412;20.970;2023-09-19T13:08:30;2.03;;;1.38;;
36061;SDS011;22123;52.412;20.970;2023-09-19T13:16:11;2.63;;;1.10;;
36061;SDS011;22123;52.412;20.970;2023-09-19T13:18:52;2.95;;;1.80;;
36061;SDS011;22123;52.412;20.970;2023-09-19T13:26:45;2.20;;;2.00;;
36061;SDS011;22123;52.412;20.970;2023-09-19T13:29:11;2.05;;;1.55;;
36061;SDS011;22123;52.412;20.970;2023-09-19T13:31:37;2.65;;;1.63;;
36061;SDS011;22123;52.412;20.970;2023-09-19T13:34:03;3.22;;;1.45;;
36061;SDS011;22123;52.412;20.970;2023-09-19T13:36:29;1.77;;;1.45;;
36061;SDS011;22123;52.412;20.970;2023-09-19T13:39:01;2.55;;;1.83;;
36061;SDS011;22123;52.412;20.970;2023-09-19T13:41:27;1.20;;;1.10;;
36061;SDS011;22123;52.412;20.970;2023-09-19T13:43:53;3.78;;;2.17;;
36061;SDS011;22123;52.412;20.970;2023-09-19T13:46:19;2.05;;;1.75;;
36061;SDS011;22123;52.412;20.970;2023-09-19T13:48:45;1.85;;;1.40;;
36061;SDS011;22123;52.412;20.970;2023-09-19T13:51:10;1.83;;;1.65;;
36061;SDS011;22123;52.412;20.970;2023-09-19T13:53:36;2.83;;;1.70;;
36061;SDS011;22123;52.412;20.970;2023-09-19T13:56:02;4.38;;;1.80;;
36061;SDS011;22123;52.412;20.970;2023-09-19T13:58:28;2.42;;;2.22;;
36061;SDS011;22123;52.412;20.970;2023-09-19T14:00:56;3.22;;;1.30;;
36061;SDS011;22123;52.412;20.970;2023-09-19T14:03:22;3.22;;;1.77;;
36061;SDS011;22123;52.412;20.970;2023-09-19T14:05:48;3.13;;;1.80;;
36061;SDS011;22123;52.412;20.970;2023-09-19T14:08:14;2.67;;;1.90;;
36061;SDS011;22123;52.412;20.970;2023-09-19T14:10:40;2.95;;;1.20;;
36061;SDS011;22123;52.412;20.970;2023-09-19T14:13:05;2.25;;;1.98;;
36061;SDS011;22123;52.412;20.970;2023-09-19T14:15:36;2.22;;;2.05;;
36061;SDS011;22123;52.412;20.970;2023-09-19T14:18:02;2.05;;;1.42;;
36061;SDS011;22123;52.412;20.970;2023-09-19T14:20:28;2.13;;;1.60;;
36061;SDS011;22123;52.412;20.970;2023-09-19T14:22:54;3.42;;;1.33;;
36061;SDS011;22123;52.412;20.970;2023-09-19T14:25:20;3.25;;;1.75;;
36061;SDS011;22123;52.412;20.970;2023-09-19T14:27:46;1.52;;;1.15;;
36061;SDS011;22123;52.412;20.970;2023-09-19T14:30:13;2.45;;;1.33;;
36061;SDS011;22123;52.412;20.970;2023-09-19T14:32:39;1.45;;;1.35;;
36061;SDS011;22123;52.412;20.970;2023-09-19T14:35:06;1.67;;;1.02;;
36061;SDS011;22123;52.412;20.970;2023-09-19T14:37:32;1.95;;;1.15;;
36061;SDS011;22123;52.412;20.970;2023-09-19T14:39:58;1.60;;;1.20;;
36061;SDS011;22123;52.412;20.970;2023-09-19T14:42:24;2.40;;;1.60;;
36061;SDS011;22123;52.412;20.970;2023-09-19T14:44:50;2.95;;;1.50;;
36061;SDS011;22123;52.412;20.970;2023-09-19T14:47:16;2.92;;;1.92;;
36061;SDS011;22123;52.412;20.970;2023-09-19T14:49:42;2.30;;;1.40;;
36061;SDS011;22123;52.412;20.970;2023-09-19T14:52:08;2.67;;;1.38;;
36061;SDS011;22123;52.412;20.970;2023-09-19T14:54:35;1.98;;;1.27;;
36061;SDS011;22123;52.412;20.970;2023-09-19T14:57:02;3.42;;;1.48;;
36061;SDS011;22123;52.412;20.970;2023-09-19T14:59:28;2.63;;;1.55;;
36061;SDS011;22123;52.412;20.970;2023-09-19T15:01:53;2.72;;;1.55;;
36061;SDS011;22123;52.412;20.970;2023-09-19T15:04:19;4.65;;;1.85;;
36061;SDS011;22123;52.412;20.970;2023-09-19T15:06:45;1.65;;;1.55;;
36061;SDS011;22123;52.412;20.970;2023-09-19T15:09:11;1.75;;;1.30;;
36061;SDS011;22123;52.412;20.970;2023-09-19T15:11:38;2.45;;;1.38;;
36061;SDS011;22123;52.412;20.970;2023-09-19T15:14:03;3.92;;;2.20;;
36061;SDS011;22123;52.412;20.970;2023-09-19T15:16:29;2.38;;;1.40;;
36061;SDS011;22123;52.412;20.970;2023-09-19T15:18:55;1.48;;;1.27;;
36061;SDS011;22123;52.412;20.970;2023-09-19T15:21:21;5.10;;;2.55;;
36061;SDS011;22123;52.412;20.970;2023-09-19T15:23:47;2.08;;;1.50;;
36061;SDS011;22123;52.412;20.970;2023-09-19T15:26:14;2.88;;;2.50;;
36061;SDS011;22123;52.412;20.970;2023-09-19T15:28:40;4.70;;;1.52;;
36061;SDS011;22123;52.412;20.970;2023-09-19T15:31:09;2.45;;;1.60;;
36061;SDS011;22123;52.412;20.970;2023-09-19T15:33:36;2.75;;;1.83;;
36061;SDS011;22123;52.412;20.970;2023-09-19T15:36:06;3.55;;;1.92;;
36061;SDS011;22123;52.412;20.970;2023-09-19T15:38:54;5.32;;;2.03;;
36061;SDS011;22123;52.412;20.970;2023-09-19T15:41:21;5.03;;;1.60;;
36061;SDS011;22123;52.412;20.970;2023-09-19T15:43:47;2.47;;;1.75;;
36061;SDS011;22123;52.412;20.970;2023-09-19T15:46:13;2.65;;;2.08;;
36061;SDS011;22123;52.412;20.970;2023-09-19T15:48:39;2.45;;;1.90;;
36061;SDS011;22123;52.412;20.970;2023-09-19T15:51:05;3.05;;;1.65;;
36061;SDS011;22123;52.412;20.970;2023-09-19T15:53:41;1.20;;;1.08;;
36061;SDS011;22123;52.412;20.970;2023-09-19T15:56:08;2.88;;;1.75;;
36061;SDS011;22123;52.412;20.970;2023-09-19T15:58:34;4.00;;;1.20;;
36061;SDS011;22123;52.412;20.970;2023-09-19T16:01:04;1.42;;;1.33;;
36061;SDS011;22123;52.412;20.970;2023-09-19T16:03:31;1.13;;;1.00;;
36061;SDS011;22123;52.412;20.970;2023-09-19T16:05:57;1.98;;;1.30;;
36061;SDS011;22123;52.412;20.970;2023-09-19T16:10:48;1.50;;;1.40;;
36061;SDS011;22123;52.412;20.970;2023-09-19T16:13:14;1.30;;;1.10;;
36061;SDS011;22123;52.412;20.970;2023-09-19T16:15:41;1.17;;;0.98;;
36061;SDS011;22123;52.412;20.970;2023-09-19T16:18:07;1.40;;;0.88;;
36061;SDS011;22123;52.412;20.970;2023-09-19T16:20:33;1.17;;;1.08;;
36061;SDS011;22123;52.412;20.970;2023-09-19T16:22:59;1.20;;;1.08;;
36061;SDS011;22123;52.412;20.970;2023-09-19T16:25:25;1.33;;;1.10;;
36061;SDS011;22123;52.412;20.970;2023-09-19T16:27:51;0.93;;;0.88;;
36061;SDS011;22123;52.412;20.970;2023-09-19T16:30:17;3.45;;;1.20;;
36061;SDS011;22123;52.412;20.970;2023-09-19T16:32:42;1.10;;;1.00;;
36061;SDS011;22123;52.412;20.970;2023-09-19T16:35:08;1.65;;;1.15;;
36061;SDS011;22123;52.412;20.970;2023-09-19T16:37:34;1.42;;;1.33;;
36061;SDS011;22123;52.412;20.970;2023-09-19T16:40:02;1.50;;;1.05;;
36061;SDS011;22123;52.412;20.970;2023-09-19T16:42:28;1.67;;;0.82;;
36061;SDS011;22123;52.412;20.970;2023-09-19T16:44:54;1.92;;;1.00;;
36061;SDS011;22123;52.412;20.970;2023-09-19T16:47:20;0.85;;;0.70;;
36061;SDS011;22123;52.412;20.970;2023-09-19T16:49:46;1.15;;;1.05;;
36061;SDS011;22123;52.412;20.970;2023-09-19T16:52:12;1.38;;;0.73;;
36061;SDS011;22123;52.412;20.970;2023-09-19T16:54:38;1.60;;;0.90;;
36061;SDS011;22123;52.412;20.970;2023-09-19T16:57:04;1.98;;;1.10;;
36061;SDS011;22123;52.412;20.970;2023-09-19T16:59:30;0.90;;;0.77;;
36061;SDS011;22123;52.412;20.970;2023-09-19T17:01:56;1.20;;;0.63;;
36061;SDS011;22123;52.412;20.970;2023-09-19T17:04:24;1.20;;;1.10;;
36061;SDS011;22123;52.412;20.970;2023-09-19T17:06:49;1.42;;;1.00;;
36061;SDS011;22123;52.412;20.970;2023-09-19T17:09:18;1.10;;;0.70;;
36061;SDS011;22123;52.412;20.970;2023-09-19T17:11:44;1.27;;;1.00;;
36061;SDS011;22123;52.412;20.970;2023-09-19T17:14:10;1.40;;;0.80;;